Terminal Aerodrome Forecast
Issued by NWS Amarillo, TX

Home | Current Version | Previous Version | Text Only | Print | Product List | Glossary On
Versions: 1 2 3 4 5 6 7 8 9 10 11 12 13 14 15 16 17 18 19 20 21 22 23 24 25 26 27
000
FTUS44 KAMA 031200 CCA
TAFDHT
TAF COR
KDHT 031200Z 0312/0412 23010KT P6SM SKC WS020/24040KT
     FM031500 26014KT P6SM SCT030 BKN200
     FM032300 06012KT P6SM SCT015 OVC030
     FM040100 05016KT P6SM -RA SCT005 OVC015
      TEMPO 0401/0405 4SM -RASN BR OVC004
     FM040500 04015G25KT P6SM -SN OVC002=

USA.gov is the U.S. government's official web portal to all federal, state and local government web resources and services.